createdAt,value
2023-09-12T00:02:19.018Z,82.30
2023-09-12T00:04:54.795Z,82.40
2023-09-12T00:07:33.824Z,82.40
2023-09-12T00:10:27.248Z,82.50
2023-09-12T00:13:07.667Z,82.50
2023-09-12T00:15:42.008Z,82.40
2023-09-12T00:18:22.270Z,82.40
2023-09-12T00:20:57.373Z,82.50
2023-09-12T00:23:37.440Z,82.60
2023-09-12T00:26:15.773Z,82.60
2023-09-12T00:28:46.537Z,82.60
2023-09-12T00:31:28.715Z,82.60
2023-09-12T00:34:23.457Z,82.60
2023-09-12T00:37:03.227Z,82.60
2023-09-12T00:39:39.805Z,82.70
2023-09-12T00:42:25.499Z,82.80
2023-09-12T00:45:01.352Z,82.70
2023-09-12T00:47:46.295Z,82.60
2023-09-12T00:50:46.611Z,82.70
2023-09-12T00:53:19.499Z,82.60
2023-09-12T00:56:23.900Z,82.60
2023-09-12T00:58:53.913Z,82.70
2023-09-12T01:04:34.964Z,82.80
2023-09-12T01:07:06.137Z,82.90
2023-09-12T01:10:01.588Z,82.90
2023-09-12T01:12:34.963Z,82.90
2023-09-12T01:15:14.544Z,82.90
2023-09-12T01:17:56.223Z,83.00
2023-09-12T01:20:44.978Z,83.10
2023-09-12T01:23:42.261Z,83.10
2023-09-12T01:26:41.398Z,83.10
2023-09-12T01:29:58.758Z,83.30
2023-09-12T01:32:37.767Z,83.10
2023-09-12T01:35:21.537Z,83.10
2023-09-12T01:38:12.676Z,83.10
2023-09-12T01:40:50.822Z,83.30
2023-09-12T01:43:28.991Z,82.90
2023-09-12T01:46:10.566Z,83.20
2023-09-12T01:52:08.452Z,83.30
2023-09-12T01:54:56.965Z,83.20
2023-09-12T01:58:17.660Z,83.30
2023-09-12T02:00:56.998Z,83.50
2023-09-12T02:03:49.530Z,83.30
2023-09-12T02:06:47.031Z,83.30
2023-09-12T02:10:03.352Z,83.30
2023-09-12T02:13:02.692Z,83.40
2023-09-12T02:16:09.307Z,83.50
2023-09-12T02:19:29.849Z,83.30
2023-09-12T02:22:57.001Z,83.50
2023-09-12T02:25:55.670Z,83.40
2023-09-12T02:28:39.893Z,83.50
2023-09-12T02:34:49.322Z,83.50
2023-09-12T02:37:44.564Z,83.70
2023-09-12T02:46:55.736Z,83.90
2023-09-12T02:50:30.780Z,83.90
2023-09-12T02:53:56.016Z,83.90
2023-09-12T03:00:18.204Z,84.00
2023-09-12T03:03:07.815Z,84.00
2023-09-12T03:05:59.704Z,84.20
2023-09-12T03:08:45.821Z,84.10
2023-09-12T03:11:35.869Z,84.00
2023-09-12T03:14:31.659Z,84.20
2023-09-12T03:17:36.046Z,84.10
2023-09-12T03:23:24.432Z,84.20
2023-09-12T03:26:09.344Z,84.30
2023-09-12T03:28:49.748Z,84.30
2023-09-12T03:31:38.754Z,84.30
2023-09-12T03:34:49.940Z,84.30
2023-09-12T03:38:03.556Z,84.30
2023-09-12T03:41:05.546Z,84.50
2023-09-12T03:43:52.521Z,85.10
2023-09-12T03:49:38.036Z,84.40
2023-09-12T03:52:35.177Z,84.60
2023-09-12T03:58:41.529Z,84.80
2023-09-12T04:01:35.480Z,84.70
2023-09-12T04:04:21.984Z,84.80
2023-09-12T04:07:24.113Z,84.80
2023-09-12T04:09:53.449Z,84.80
2023-09-12T04:12:21.359Z,84.90
2023-09-12T04:14:52.231Z,84.80
2023-09-12T04:17:27.507Z,85.00
2023-09-12T04:19:55.448Z,85.00
2023-09-12T04:22:23.902Z,85.00
2023-09-12T04:24:53.236Z,85.00
2023-09-12T04:27:21.175Z,85.00
2023-09-12T04:30:53.931Z,85.00
2023-09-12T04:33:35.397Z,85.10
2023-09-12T04:39:50.117Z,85.10
2023-09-12T04:42:40.210Z,85.10
2023-09-12T04:48:22.195Z,85.30
2023-09-12T04:54:08.066Z,85.70
2023-09-12T04:56:36.536Z,85.70
2023-09-12T04:59:14.373Z,85.50
2023-09-12T05:01:42.723Z,85.50
2023-09-12T05:04:15.426Z,85.50
2023-09-12T05:06:46.571Z,85.50
2023-09-12T05:09:20.965Z,85.50
2023-09-12T05:11:49.481Z,85.50
2023-09-12T05:14:25.161Z,85.40
2023-09-12T05:16:58.352Z,85.50
2023-09-12T05:19:30.733Z,85.50
2023-09-12T05:22:01.222Z,85.60
2023-09-12T05:24:33.995Z,85.50
2023-09-12T05:27:02.228Z,85.60
2023-09-12T05:29:31.551Z,85.50
2023-09-12T05:31:59.668Z,85.50
2023-09-12T05:34:27.630Z,85.50
2023-09-12T05:36:55.486Z,85.40
2023-09-12T05:39:23.370Z,85.50
2023-09-12T05:41:51.532Z,85.50
2023-09-12T05:44:19.952Z,85.50
2023-09-12T05:46:50.203Z,85.30
2023-09-12T05:49:18.477Z,85.30
2023-09-12T05:51:46.426Z,85.30
2023-09-12T05:54:15.694Z,85.30
2023-09-12T05:56:43.625Z,85.30
2023-09-12T05:59:11.495Z,85.30
2023-09-12T06:01:40.343Z,85.30
2023-09-12T06:04:10.786Z,85.20
2023-09-12T06:06:39.944Z,85.10
2023-09-12T06:09:09.916Z,85.10
2023-09-12T06:11:40.996Z,85.10
2023-09-12T06:14:09.384Z,85.10
2023-09-12T06:16:37.620Z,85.10
2023-09-12T06:19:07.265Z,85.00
2023-09-12T06:21:36.477Z,85.00
2023-09-12T06:24:11.935Z,84.90
2023-09-12T06:26:40.375Z,84.90
2023-09-12T06:29:08.342Z,85.00
2023-09-12T06:31:36.729Z,85.70
2023-09-12T06:34:08.002Z,84.90
2023-09-12T06:36:37.277Z,85.10
2023-09-12T06:39:06.120Z,85.30
2023-09-12T06:41:34.358Z,85.10
2023-09-12T06:44:03.972Z,85.20
2023-09-12T06:46:31.965Z,85.30
2023-09-12T06:49:01.936Z,85.50
2023-09-12T06:51:34.418Z,85.60
2023-09-12T06:54:07.200Z,85.70
2023-09-12T06:56:38.697Z,85.80
2023-09-12T06:59:06.935Z,85.80
2023-09-12T07:01:35.020Z,86.10
2023-09-12T07:04:04.209Z,85.80
2023-09-12T07:06:33.973Z,86.00
2023-09-12T07:09:02.061Z,85.80
2023-09-12T07:11:31.290Z,85.80
2023-09-12T07:13:59.140Z,85.90
2023-09-12T07:16:26.992Z,85.80
2023-09-12T07:18:54.957Z,85.90
2023-09-12T07:21:22.930Z,85.80
2023-09-12T07:23:51.014Z,85.70
2023-09-12T07:26:19.032Z,85.70
2023-09-12T07:28:48.345Z,85.70
2023-09-12T07:31:16.899Z,85.70
2023-09-12T07:33:45.295Z,85.70
2023-09-12T07:36:13.890Z,85.70
2023-09-12T07:38:52.804Z,86.00
2023-09-12T07:41:20.985Z,86.20
2023-09-12T07:43:50.390Z,86.60
2023-09-12T07:46:18.458Z,86.40
2023-09-12T07:48:46.597Z,86.60
2023-09-12T07:51:16.604Z,86.30
2023-09-12T07:53:44.995Z,86.50
2023-09-12T07:56:13.463Z,86.40
2023-09-12T07:58:41.383Z,86.50
2023-09-12T08:01:11.504Z,86.30
2023-09-12T08:03:41.727Z,86.40
2023-09-12T08:06:10.251Z,86.40
2023-09-12T08:08:38.256Z,86.30
2023-09-12T08:11:06.541Z,86.40
2023-09-12T08:13:34.468Z,86.40
2023-09-12T08:16:02.635Z,86.70
2023-09-12T08:18:34.840Z,86.70
2023-09-12T08:21:06.260Z,86.80
2023-09-12T08:23:34.214Z,86.60
2023-09-12T08:26:02.527Z,86.60
2023-09-12T08:28:30.564Z,86.60
2023-09-12T08:31:00.730Z,86.60
2023-09-12T08:33:29.030Z,86.50
2023-09-12T08:35:58.870Z,86.40
2023-09-12T08:38:26.971Z,86.30
2023-09-12T08:40:54.958Z,86.40
2023-09-12T08:43:23.758Z,86.20
2023-09-12T08:45:53.246Z,86.10
2023-09-12T08:48:25.019Z,85.90
2023-09-12T08:50:55.229Z,85.80
2023-09-12T08:53:24.781Z,85.60
2023-09-12T08:55:55.024Z,85.60
2023-09-12T08:58:24.421Z,85.50
2023-09-12T09:00:54.160Z,85.50
2023-09-12T09:03:24.406Z,85.40
2023-09-12T09:05:54.587Z,85.30
2023-09-12T09:08:25.002Z,85.30
2023-09-12T09:10:59.567Z,85.20
2023-09-12T09:13:27.847Z,85.20
2023-09-12T09:16:13.771Z,85.10
2023-09-12T09:18:59.245Z,85.00
2023-09-12T09:21:29.228Z,84.90
2023-09-12T09:24:01.625Z,84.80
2023-09-12T09:26:44.616Z,84.70
2023-09-12T09:29:15.571Z,84.60
2023-09-12T09:31:44.286Z,84.60
2023-09-12T09:34:17.727Z,84.60
2023-09-12T09:36:46.974Z,84.50
2023-09-12T09:39:18.095Z,84.50
2023-09-12T09:41:50.270Z,84.50
2023-09-12T09:44:18.977Z,84.50
2023-09-12T09:46:48.046Z,84.60
2023-09-12T09:49:18.784Z,84.90
2023-09-12T09:51:47.556Z,85.60
2023-09-12T09:54:17.774Z,84.80
2023-09-12T09:56:52.477Z,84.70
2023-09-12T09:59:22.928Z,84.90
2023-09-12T10:01:53.013Z,84.90
2023-09-12T10:04:21.285Z,85.00
2023-09-12T10:06:50.062Z,84.90
2023-09-12T10:09:39.069Z,84.70
2023-09-12T10:12:20.083Z,85.20
2023-09-12T10:14:59.524Z,85.10
2023-09-12T10:17:34.151Z,85.20
2023-09-12T10:20:19.290Z,85.00
2023-09-12T10:22:56.595Z,85.10
2023-09-12T10:25:29.798Z,85.00
2023-09-12T10:27:58.302Z,85.00
2023-09-12T10:30:27.998Z,84.80
2023-09-12T10:33:08.401Z,84.70
2023-09-12T10:35:46.932Z,84.80
2023-09-12T10:38:22.009Z,84.70
2023-09-12T10:41:17.591Z,84.70
2023-09-12T10:43:50.992Z,84.70
2023-09-12T10:46:19.411Z,84.80
2023-09-12T10:48:47.766Z,84.90
2023-09-12T10:51:19.667Z,84.90
2023-09-12T10:53:50.998Z,84.90
2023-09-12T10:56:22.173Z,84.70
2023-09-12T10:59:13.658Z,84.60
2023-09-12T11:01:44.677Z,84.40
2023-09-12T11:04:35.271Z,84.30
2023-09-12T11:07:29.164Z,84.20
2023-09-12T11:10:20.002Z,84.20
2023-09-12T11:13:15.397Z,84.20
2023-09-12T11:16:13.152Z,83.80
2023-09-12T11:19:19.877Z,83.80
2023-09-12T11:21:54.146Z,83.80
2023-09-12T11:24:23.726Z,84.00
2023-09-12T11:27:06.597Z,83.80
2023-09-12T11:29:42.359Z,83.80
2023-09-12T11:32:16.041Z,83.80
2023-09-12T11:34:46.699Z,83.70
2023-09-12T11:37:27.447Z,83.60
2023-09-12T11:39:59.643Z,83.60
2023-09-12T11:42:29.180Z,83.50
2023-09-12T11:44:59.023Z,83.40
2023-09-12T11:47:27.734Z,83.30
2023-09-12T11:49:55.867Z,83.10
2023-09-12T11:52:26.112Z,83.10
2023-09-12T11:54:57.019Z,83.00
2023-09-12T11:57:27.124Z,83.30
2023-09-12T12:00:01.111Z,83.30
2023-09-12T12:02:50.082Z,83.50
2023-09-12T12:05:23.174Z,83.70
2023-09-12T12:08:11.779Z,83.80
2023-09-12T12:10:45.714Z,83.80
2023-09-12T12:13:34.891Z,83.80
2023-09-12T12:16:16.373Z,83.50
2023-09-12T12:18:57.955Z,83.30
2023-09-12T12:21:34.644Z,83.20
2023-09-12T12:24:16.572Z,83.40
2023-09-12T12:26:48.214Z,83.60
2023-09-12T12:29:20.435Z,83.60
2023-09-12T12:31:56.280Z,83.80
2023-09-12T12:35:10.439Z,83.90
2023-09-12T12:37:44.155Z,83.70
2023-09-12T12:40:18.449Z,83.90
2023-09-12T12:42:55.027Z,83.90
2023-09-12T12:45:31.732Z,83.80
2023-09-12T12:48:08.249Z,84.10
2023-09-12T12:50:47.859Z,84.10
2023-09-12T12:53:38.943Z,84.20
2023-09-12T12:56:30.894Z,84.20
2023-09-12T12:59:10.909Z,83.90
2023-09-12T13:01:42.940Z,83.70
2023-09-12T13:04:29.451Z,83.60
2023-09-12T13:06:59.525Z,83.50
2023-09-12T13:09:50.078Z,83.60
2023-09-12T13:12:18.938Z,83.70
2023-09-12T13:14:49.909Z,83.50
2023-09-12T13:17:18.123Z,83.40
2023-09-12T13:19:46.516Z,83.40
2023-09-12T13:22:18.641Z,83.20
2023-09-12T13:24:49.456Z,83.40
2023-09-12T13:27:19.515Z,83.20
2023-09-12T13:29:50.764Z,83.20
2023-09-12T13:32:19.459Z,83.30
2023-09-12T13:34:49.921Z,83.20
2023-09-12T13:37:22.522Z,83.20
2023-09-12T13:39:51.226Z,83.20
2023-09-12T13:42:21.211Z,83.20
2023-09-12T13:44:52.141Z,83.20
2023-09-12T13:47:23.979Z,83.30
2023-09-12T13:49:54.860Z,83.20
2023-09-12T13:52:38.258Z,83.20
2023-09-12T13:55:07.208Z,83.20
2023-09-12T13:57:42.145Z,83.20
2023-09-12T14:00:36.117Z,83.10
2023-09-12T14:03:09.034Z,83.00
2023-09-12T14:05:37.781Z,83.00
2023-09-12T14:08:08.574Z,83.00
2023-09-12T14:10:38.837Z,82.90
2023-09-12T14:13:21.545Z,82.80
2023-09-12T14:15:51.683Z,82.80
2023-09-12T14:18:22.119Z,82.80
2023-09-12T14:20:53.430Z,82.70
2023-09-12T14:23:23.351Z,82.60
2023-09-12T14:25:51.459Z,82.70
2023-09-12T14:28:19.687Z,82.60
2023-09-12T14:30:50.685Z,82.60
2023-09-12T14:33:19.660Z,82.60
2023-09-12T14:35:50.316Z,82.60
2023-09-12T14:38:18.245Z,82.60
2023-09-12T14:40:47.399Z,84.30
2023-09-12T14:43:15.256Z,85.70
2023-09-12T14:45:43.276Z,85.10
2023-09-12T14:48:11.171Z,85.50
2023-09-12T14:50:43.481Z,86.10
2023-09-12T14:53:14.058Z,85.60
2023-09-12T14:55:42.271Z,85.80
2023-09-12T14:58:11.572Z,85.80
2023-09-12T15:00:39.868Z,86.10
2023-09-12T15:03:07.953Z,85.50
2023-09-12T15:05:35.848Z,85.00
2023-09-12T15:08:04.006Z,84.80
2023-09-12T15:10:34.926Z,84.60
2023-09-12T15:13:10.066Z,84.60
2023-09-12T15:15:39.356Z,84.40
2023-09-12T15:18:07.430Z,84.30
2023-09-12T15:20:38.134Z,84.20
2023-09-12T15:23:06.556Z,84.10
2023-09-12T15:25:34.396Z,84.00
2023-09-12T15:28:02.242Z,83.90
2023-09-12T15:30:32.306Z,83.70
2023-09-12T15:33:01.491Z,83.60
2023-09-12T15:35:28.397Z,82.80
2023-09-12T15:37:56.304Z,83.90
2023-09-12T15:40:24.154Z,84.50
2023-09-12T15:42:52.098Z,84.40
2023-09-12T15:45:22.330Z,84.80
2023-09-12T15:47:50.646Z,84.40
2023-09-12T15:50:20.050Z,84.70
2023-09-12T15:52:47.964Z,84.90
2023-09-12T15:55:15.743Z,85.00
2023-09-12T15:57:43.553Z,84.30
2023-09-12T16:00:12.656Z,83.70
2023-09-12T16:02:41.218Z,83.80
2023-09-12T16:05:10.890Z,84.30
2023-09-12T16:07:40.152Z,84.40
2023-09-12T16:10:10.201Z,84.80
2023-09-12T16:12:38.298Z,83.90
2023-09-12T16:15:08.951Z,84.00
2023-09-12T16:17:38.264Z,83.50
2023-09-12T16:20:09.608Z,84.20
2023-09-12T16:22:37.455Z,84.60
2023-09-12T16:25:07.444Z,85.80
2023-09-12T16:27:35.462Z,85.40
2023-09-12T16:30:08.600Z,85.80
2023-09-12T16:32:36.942Z,86.20
2023-09-12T16:35:05.616Z,85.30
2023-09-12T16:37:33.808Z,84.70
2023-09-12T16:40:05.347Z,84.40
2023-09-12T16:42:36.159Z,85.10
2023-09-12T16:45:05.422Z,85.10
2023-09-12T16:47:33.381Z,85.30
2023-09-12T16:50:02.329Z,85.50
2023-09-12T16:52:35.112Z,85.50
2023-09-12T16:55:03.190Z,85.30
2023-09-12T16:57:31.051Z,84.80
2023-09-12T17:00:00.268Z,84.60
2023-09-12T17:02:28.621Z,84.50
2023-09-12T17:04:56.552Z,84.70
2023-09-12T17:07:24.367Z,85.10
2023-09-12T17:09:52.923Z,85.30
2023-09-12T17:12:20.917Z,85.50
2023-09-12T17:14:48.719Z,85.70
2023-09-12T17:17:18.037Z,86.10
2023-09-12T17:19:45.967Z,86.60
2023-09-12T17:22:13.747Z,87.20
2023-09-12T17:24:50.780Z,87.90
2023-09-12T17:27:18.685Z,87.80
2023-09-12T17:29:49.243Z,87.40
2023-09-12T17:32:19.793Z,87.00
2023-09-12T17:34:48.205Z,86.60
2023-09-12T17:37:16.286Z,86.40
2023-09-12T17:39:44.339Z,86.20
2023-09-12T17:42:12.360Z,85.80
2023-09-12T17:44:40.247Z,85.80
2023-09-12T17:47:09.140Z,85.80
2023-09-12T17:49:39.721Z,85.70
2023-09-12T17:52:13.088Z,85.60
2023-09-12T17:54:41.153Z,85.50
2023-09-12T17:57:09.147Z,85.50
2023-09-12T17:59:39.319Z,86.30
2023-09-12T18:02:07.975Z,85.50
2023-09-12T18:04:36.089Z,85.50
2023-09-12T18:07:08.574Z,85.50
2023-09-12T18:09:36.642Z,85.50
2023-09-12T18:12:04.768Z,85.50
2023-09-12T18:14:32.704Z,85.50
2023-09-12T18:17:00.626Z,85.50
2023-09-12T18:19:30.109Z,85.70
2023-09-12T18:21:58.036Z,85.50
2023-09-12T18:24:27.709Z,85.40
2023-09-12T18:26:55.731Z,85.70
2023-09-12T18:29:24.106Z,85.60
2023-09-12T18:31:52.050Z,85.60
2023-09-12T18:34:22.035Z,85.70
2023-09-12T18:36:50.225Z,85.70
2023-09-12T18:39:19.004Z,85.60
2023-09-12T18:41:48.510Z,85.60
2023-09-12T18:44:16.731Z,85.70
2023-09-12T18:46:44.781Z,85.60
2023-09-12T18:49:13.260Z,85.60
2023-09-12T18:51:46.252Z,85.60
2023-09-12T18:54:20.279Z,85.60
2023-09-12T18:56:50.426Z,85.70
2023-09-12T18:59:18.487Z,85.60
2023-09-12T19:01:46.566Z,85.60
2023-09-12T19:04:25.644Z,85.60
2023-09-12T19:06:53.939Z,85.70
2023-09-12T19:09:21.890Z,85.70
2023-09-12T19:11:51.640Z,85.60
2023-09-12T19:14:19.607Z,85.70
2023-09-12T19:16:47.654Z,85.80
2023-09-12T19:19:15.758Z,85.60
2023-09-12T19:21:46.889Z,85.70
2023-09-12T19:24:15.354Z,85.60
2023-09-12T19:26:43.569Z,85.50
2023-09-12T19:29:17.925Z,85.90
2023-09-12T19:31:46.097Z,85.80
2023-09-12T19:34:14.225Z,85.90
2023-09-12T19:36:42.566Z,85.60
2023-09-12T19:39:13.332Z,85.90
2023-09-12T19:41:41.300Z,85.90
2023-09-12T19:44:09.235Z,85.80
2023-09-12T19:46:43.545Z,85.80
2023-09-12T19:49:12.029Z,85.80
2023-09-12T19:51:44.134Z,86.10
2023-09-12T19:54:12.876Z,85.90
2023-09-12T19:56:40.862Z,85.80
2023-09-12T19:59:08.745Z,85.70
2023-09-12T20:01:38.290Z,85.80
2023-09-12T20:04:06.531Z,85.90
2023-09-12T20:06:35.455Z,85.90
2023-09-12T20:09:11.659Z,86.10
2023-09-12T20:11:39.749Z,86.10
2023-09-12T20:14:07.684Z,86.10
2023-09-12T20:16:35.717Z,86.10
2023-09-12T20:19:06.819Z,86.00
2023-09-12T20:21:36.434Z,85.90
2023-09-12T20:24:07.213Z,86.10
2023-09-12T20:26:37.631Z,86.00
2023-09-12T20:29:05.872Z,86.10
2023-09-12T20:31:34.068Z,86.10
2023-09-12T20:34:02.232Z,86.10
2023-09-12T20:36:31.634Z,86.30
2023-09-12T20:39:26.578Z,86.30
2023-09-12T20:41:59.061Z,86.60
2023-09-12T20:44:27.276Z,86.20
2023-09-12T20:46:58.992Z,86.40
2023-09-12T20:49:27.236Z,86.20
2023-09-12T20:51:56.510Z,86.30
2023-09-12T20:54:24.489Z,86.30
2023-09-12T20:56:52.353Z,86.40
2023-09-12T20:59:20.548Z,86.50
2023-09-12T21:01:48.507Z,86.30
2023-09-12T21:04:16.583Z,86.20
2023-09-12T21:06:44.549Z,86.40
2023-09-12T21:09:16.552Z,86.30
2023-09-12T21:11:49.610Z,86.30
2023-09-12T21:14:17.508Z,86.40
2023-09-12T21:16:45.819Z,86.40
2023-09-12T21:19:13.832Z,86.30
2023-09-12T21:21:41.886Z,86.40
2023-09-12T21:24:10.104Z,86.40
2023-09-12T21:26:39.383Z,86.40
2023-09-12T21:29:07.342Z,86.50
2023-09-12T21:31:35.958Z,86.40
2023-09-12T21:34:03.936Z,86.40
2023-09-12T21:36:32.234Z,86.60
2023-09-12T21:39:00.956Z,86.50
2023-09-12T21:41:28.824Z,87.40
2023-09-12T21:43:58.018Z,86.60
2023-09-12T21:46:26.008Z,86.60
2023-09-12T21:48:53.999Z,86.70
2023-09-12T21:51:21.983Z,86.70
2023-09-12T21:53:50.527Z,86.90
2023-09-12T21:56:18.430Z,86.80
2023-09-12T21:58:46.292Z,86.70
2023-09-12T22:01:16.089Z,86.60
2023-09-12T22:03:44.643Z,86.80
2023-09-12T22:06:12.695Z,86.90
2023-09-12T22:08:40.589Z,86.80
2023-09-12T22:11:08.698Z,86.90
2023-09-12T22:13:36.600Z,86.80
2023-09-12T22:16:04.798Z,87.00
2023-09-12T22:18:34.492Z,87.00
2023-09-12T22:21:08.462Z,87.00
2023-09-12T22:23:37.174Z,86.80
2023-09-12T22:26:11.854Z,87.00
2023-09-12T22:28:39.804Z,87.00
2023-09-12T22:31:14.629Z,86.90
2023-09-12T22:33:45.052Z,87.00
2023-09-12T22:36:19.340Z,87.10
2023-09-12T22:38:48.040Z,87.10
2023-09-12T22:41:16.248Z,87.00
2023-09-12T22:43:44.377Z,87.10
2023-09-12T22:46:12.478Z,87.10
2023-09-12T22:48:40.409Z,87.10
2023-09-12T22:51:10.570Z,87.70
2023-09-12T22:53:38.463Z,88.50
2023-09-12T22:56:06.546Z,88.00
2023-09-12T22:58:34.369Z,87.80
2023-09-12T23:01:03.757Z,87.80
2023-09-12T23:03:31.885Z,88.20
2023-09-12T23:06:01.922Z,88.90
2023-09-12T23:08:31.097Z,88.20
2023-09-12T23:10:58.897Z,88.50
2023-09-12T23:13:26.738Z,88.20
2023-09-12T23:15:55.134Z,88.40
2023-09-12T23:18:23.001Z,88.20
2023-09-12T23:20:51.451Z,88.30
2023-09-12T23:23:19.333Z,88.40
2023-09-12T23:25:48.629Z,88.50
2023-09-12T23:28:16.519Z,88.40
2023-09-12T23:30:50.947Z,88.30
2023-09-12T23:33:18.821Z,88.90
2023-09-12T23:35:46.748Z,88.80
2023-09-12T23:38:14.571Z,90.00
2023-09-12T23:40:42.415Z,89.80
2023-09-12T23:43:12.167Z,89.70
2023-09-12T23:45:40.121Z,89.60
2023-09-12T23:48:08.014Z,89.50
2023-09-12T23:50:35.922Z,89.40
2023-09-12T23:53:04.263Z,89.20
2023-09-12T23:55:34.280Z,89.30
2023-09-12T23:58:02.224Z,89.20
